createdAt,value
2017-12-15T00:02:21.680Z,10.10
2017-12-15T00:04:49.147Z,11.03
2017-12-15T00:07:15.773Z,10.10
2017-12-15T00:09:42.290Z,10.77
2017-12-15T00:12:09.463Z,11.00
2017-12-15T00:14:36.012Z,10.77
2017-12-15T00:17:04.191Z,11.13
2017-12-15T00:19:31.462Z,10.77
2017-12-15T00:21:57.877Z,11.20
2017-12-15T00:24:26.111Z,11.87
2017-12-15T00:26:52.586Z,11.07
2017-12-15T00:29:19.530Z,10.40
2017-12-15T00:31:45.964Z,11.40
2017-12-15T00:34:14.065Z,10.50
2017-12-15T00:36:41.516Z,12.50
2017-12-15T00:39:07.964Z,11.27
2017-12-15T00:41:34.348Z,11.13
2017-12-15T00:44:01.388Z,11.47
2017-12-15T00:46:29.268Z,11.67
2017-12-15T00:48:55.719Z,10.27
2017-12-15T00:51:22.198Z,10.87
2017-12-15T00:53:48.769Z,10.57
2017-12-15T00:56:15.961Z,9.37
2017-12-15T00:58:42.739Z,11.43
2017-12-15T01:01:09.399Z,12.43
2017-12-15T01:03:36.904Z,10.80
2017-12-15T01:06:03.456Z,12.73
2017-12-15T01:08:30.059Z,11.10
2017-12-15T01:10:56.600Z,12.50
2017-12-15T01:13:23.144Z,11.03
2017-12-15T01:15:49.585Z,12.33
2017-12-15T01:18:16.061Z,12.83
2017-12-15T01:20:42.441Z,13.00
2017-12-15T01:23:08.874Z,12.27
2017-12-15T01:25:36.284Z,12.20
2017-12-15T01:28:03.008Z,13.10
2017-12-15T01:30:30.281Z,12.90
2017-12-15T01:32:57.499Z,13.50
2017-12-15T01:35:24.824Z,13.77
2017-12-15T01:37:51.442Z,12.00
2017-12-15T01:40:18.613Z,13.47
2017-12-15T01:42:45.795Z,13.10
2017-12-15T01:45:12.508Z,13.07
2017-12-15T01:47:39.119Z,15.27
2017-12-15T01:50:06.484Z,13.87
2017-12-15T01:52:33.399Z,13.77
2017-12-15T01:55:01.635Z,14.87
2017-12-15T01:57:29.856Z,12.50
2017-12-15T01:59:56.881Z,14.10
2017-12-15T02:02:23.259Z,13.40
2017-12-15T02:04:49.672Z,11.10
2017-12-15T02:07:16.194Z,12.93
2017-12-15T02:09:42.791Z,14.93
2017-12-15T02:12:09.316Z,14.93
2017-12-15T02:14:35.839Z,14.60
2017-12-15T02:19:53.375Z,14.77
2017-12-15T02:22:20.342Z,14.07
2017-12-15T02:24:46.749Z,15.43
2017-12-15T02:27:13.315Z,15.50
2017-12-15T02:29:39.749Z,16.00
2017-12-15T02:32:06.192Z,15.10
2017-12-15T02:34:32.658Z,16.77
2017-12-15T02:36:59.115Z,16.70
2017-12-15T02:39:25.560Z,15.50
2017-12-15T02:41:51.956Z,14.23
2017-12-15T02:44:18.624Z,14.67
2017-12-15T02:46:45.463Z,14.43
2017-12-15T02:49:12.650Z,15.27
2017-12-15T02:51:39.052Z,12.60
2017-12-15T02:54:05.485Z,15.20
2017-12-15T02:56:32.018Z,15.00
2017-12-15T02:58:59.178Z,15.50
2017-12-15T03:01:25.796Z,14.93
2017-12-15T03:03:53.020Z,15.80
2017-12-15T03:06:19.520Z,15.00
2017-12-15T03:08:46.743Z,13.43
2017-12-15T03:11:13.270Z,13.87
2017-12-15T03:13:40.529Z,15.10
2017-12-15T03:16:07.738Z,14.67
2017-12-15T03:18:34.140Z,16.03
2017-12-15T03:21:00.706Z,15.57
2017-12-15T03:23:27.415Z,15.63
2017-12-15T03:25:54.012Z,15.30
2017-12-15T03:28:20.367Z,16.00
2017-12-15T03:30:46.732Z,15.70
2017-12-15T03:33:13.687Z,16.60
2017-12-15T03:35:40.138Z,15.40
2017-12-15T03:38:08.540Z,16.63
2017-12-15T03:40:36.156Z,16.43
2017-12-15T03:43:02.656Z,16.47
2017-12-15T03:45:30.148Z,16.30
2017-12-15T03:47:57.368Z,18.00
2017-12-15T03:50:23.814Z,18.20
2017-12-15T03:52:50.183Z,16.80
2017-12-15T03:55:17.748Z,15.87
2017-12-15T03:57:44.313Z,18.57
2017-12-15T04:00:10.736Z,17.87
2017-12-15T04:02:37.217Z,15.80
2017-12-15T04:05:03.822Z,17.37
2017-12-15T04:07:30.322Z,16.13
2017-12-15T04:09:56.827Z,16.60
2017-12-15T04:12:23.290Z,16.50
2017-12-15T04:14:49.661Z,17.30
2017-12-15T04:17:16.089Z,17.10
2017-12-15T04:19:42.420Z,17.30
2017-12-15T04:22:08.895Z,15.23
2017-12-15T04:24:35.304Z,15.07
2017-12-15T04:27:02.440Z,17.90
2017-12-15T04:29:29.020Z,16.00
2017-12-15T04:31:55.908Z,17.60
2017-12-15T04:34:22.420Z,16.30
2017-12-15T04:36:49.337Z,17.73
2017-12-15T04:39:16.821Z,18.87
2017-12-15T04:41:44.128Z,16.93
2017-12-15T04:44:10.680Z,17.67
2017-12-15T04:46:38.705Z,18.90
2017-12-15T04:49:13.405Z,18.10
2017-12-15T04:51:41.951Z,17.43
2017-12-15T04:54:08.276Z,16.60
2017-12-15T04:56:34.672Z,19.63
2017-12-15T04:59:01.184Z,18.30
2017-12-15T05:01:27.935Z,17.97
2017-12-15T05:03:54.417Z,20.07
2017-12-15T05:06:20.894Z,17.40
2017-12-15T05:08:47.357Z,19.83
2017-12-15T05:11:13.848Z,19.50
2017-12-15T05:13:41.139Z,19.60
2017-12-15T05:16:07.957Z,18.33
2017-12-15T05:18:34.609Z,19.80
2017-12-15T05:21:02.504Z,19.00
2017-12-15T05:23:29.330Z,18.00
2017-12-15T05:25:55.763Z,18.70
2017-12-15T05:28:23.164Z,19.30
2017-12-15T05:30:49.650Z,17.97
2017-12-15T05:33:16.246Z,17.23
2017-12-15T05:35:42.829Z,18.33
2017-12-15T05:38:10.480Z,19.10
2017-12-15T05:40:38.370Z,20.17
2017-12-15T05:43:05.789Z,17.00
2017-12-15T05:45:36.289Z,18.70
2017-12-15T05:48:02.650Z,17.53
2017-12-15T05:50:29.537Z,18.83
2017-12-15T05:52:55.888Z,17.47
2017-12-15T05:55:22.444Z,16.73
2017-12-15T05:57:48.900Z,17.57
2017-12-15T06:00:15.417Z,15.73
2017-12-15T06:02:42.300Z,15.60
2017-12-15T06:05:08.840Z,15.47
2017-12-15T06:07:35.207Z,16.40
2017-12-15T06:10:01.617Z,16.47
2017-12-15T06:12:28.124Z,13.60
2017-12-15T06:14:55.489Z,18.37
2017-12-15T06:17:21.997Z,17.03
2017-12-15T06:19:48.968Z,16.70
2017-12-15T06:22:15.536Z,18.37
2017-12-15T06:24:41.941Z,17.23
2017-12-15T06:27:08.371Z,17.77
2017-12-15T06:29:34.776Z,16.30
2017-12-15T06:32:01.380Z,19.00
2017-12-15T06:34:27.853Z,17.80
2017-12-15T06:36:54.223Z,16.97
2017-12-15T06:39:21.425Z,17.40
2017-12-15T06:41:48.915Z,19.07
2017-12-15T06:44:16.310Z,17.60
2017-12-15T06:46:42.818Z,17.93
2017-12-15T06:49:09.404Z,17.63
2017-12-15T06:51:36.020Z,18.00
2017-12-15T06:54:02.511Z,20.77
2017-12-15T06:56:29.030Z,17.10
2017-12-15T06:58:56.199Z,19.20
2017-12-15T07:01:24.090Z,17.90
2017-12-15T07:03:50.595Z,18.63
2017-12-15T07:06:17.710Z,18.40
2017-12-15T07:08:45.210Z,17.00
2017-12-15T07:11:12.556Z,19.90
2017-12-15T07:13:38.997Z,18.50
2017-12-15T07:16:06.578Z,17.40
2017-12-15T07:18:34.216Z,19.40
2017-12-15T07:21:00.961Z,16.90
2017-12-15T07:23:28.010Z,17.03
2017-12-15T07:25:54.593Z,16.67
2017-12-15T07:28:21.482Z,18.20
2017-12-15T07:30:48.864Z,17.47
2017-12-15T07:33:16.823Z,18.70
2017-12-15T07:35:43.835Z,16.70
2017-12-15T07:38:11.328Z,16.50
2017-12-15T07:40:37.836Z,17.60
2017-12-15T07:43:04.314Z,15.23
2017-12-15T07:45:30.904Z,16.60
2017-12-15T07:47:58.773Z,16.80
2017-12-15T07:50:28.578Z,17.43
2017-12-15T07:52:55.144Z,17.33
2017-12-15T07:55:21.595Z,16.97
2017-12-15T07:57:47.957Z,16.27
2017-12-15T08:00:14.422Z,14.37
2017-12-15T08:02:40.976Z,14.63
2017-12-15T08:05:07.353Z,14.50
2017-12-15T08:07:33.751Z,15.23
2017-12-15T08:10:00.285Z,14.50
2017-12-15T08:12:26.712Z,15.47
2017-12-15T08:14:53.180Z,15.13
2017-12-15T08:17:19.792Z,15.93
2017-12-15T08:19:46.349Z,14.90
2017-12-15T08:22:12.778Z,16.20
2017-12-15T08:24:39.292Z,15.40
2017-12-15T08:27:06.385Z,14.50
2017-12-15T08:29:32.826Z,14.70
2017-12-15T08:31:59.424Z,14.60
2017-12-15T08:34:25.957Z,14.37
2017-12-15T08:36:52.606Z,14.80
2017-12-15T08:39:19.306Z,17.13
2017-12-15T08:41:45.667Z,16.60
2017-12-15T08:44:12.086Z,16.33
2017-12-15T08:46:38.499Z,17.20
2017-12-15T08:49:05.002Z,16.47
2017-12-15T08:51:31.340Z,14.83
2017-12-15T08:53:58.274Z,16.00
2017-12-15T08:56:24.800Z,15.83
2017-12-15T08:58:53.125Z,14.90
2017-12-15T09:01:21.665Z,13.67
2017-12-15T09:03:48.033Z,15.90
2017-12-15T09:06:15.461Z,15.30
2017-12-15T09:08:41.937Z,16.00
2017-12-15T09:11:08.432Z,14.60
2017-12-15T09:13:36.346Z,16.60
2017-12-15T09:16:03.102Z,14.50
2017-12-15T09:18:30.735Z,15.17
2017-12-15T09:20:57.273Z,16.30
2017-12-15T09:23:24.726Z,14.63
2017-12-15T09:25:52.972Z,15.90
2017-12-15T09:28:19.845Z,13.67
2017-12-15T09:30:46.639Z,15.83
2017-12-15T09:33:18.399Z,13.80
2017-12-15T09:35:45.316Z,14.23
2017-12-15T09:38:11.981Z,14.37
2017-12-15T09:40:38.561Z,14.83
2017-12-15T09:43:07.964Z,14.47
2017-12-15T09:45:34.918Z,14.90
2017-12-15T09:48:01.400Z,14.93
2017-12-15T09:50:27.919Z,13.90
2017-12-15T09:56:04.450Z,15.67
2017-12-15T09:58:44.510Z,15.23
2017-12-15T10:02:47.090Z,12.90
2017-12-15T10:05:13.764Z,15.60
2017-12-15T10:07:42.880Z,13.80
2017-12-15T10:10:11.028Z,15.03
2017-12-15T10:12:37.469Z,15.67
2017-12-15T10:15:04.883Z,14.70
2017-12-15T10:17:31.457Z,15.60
2017-12-15T10:19:57.861Z,14.37
2017-12-15T10:22:24.213Z,14.17
2017-12-15T10:24:50.691Z,14.23
2017-12-15T10:27:17.099Z,14.40
2017-12-15T10:29:43.447Z,12.30
2017-12-15T10:32:10.051Z,15.20
2017-12-15T10:34:37.540Z,14.83
2017-12-15T10:37:04.054Z,13.50
2017-12-15T10:39:30.588Z,15.00
2017-12-15T10:41:57.866Z,12.50
2017-12-15T10:44:24.263Z,14.73
2017-12-15T10:46:50.841Z,14.00
2017-12-15T10:49:17.230Z,15.00
2017-12-15T10:51:43.627Z,15.93
2017-12-15T10:54:10.401Z,16.57
2017-12-15T10:56:36.903Z,14.70
2017-12-15T10:59:03.792Z,15.27
2017-12-15T11:01:32.165Z,13.93
2017-12-15T11:03:58.993Z,13.80
2017-12-15T11:06:26.420Z,15.30
2017-12-15T11:08:53.125Z,13.77
2017-12-15T11:11:20.108Z,15.27
2017-12-15T11:13:47.335Z,15.57
2017-12-15T11:16:15.062Z,17.87
2017-12-15T11:18:42.980Z,15.80
2017-12-15T11:21:10.085Z,15.43
2017-12-15T11:23:37.884Z,14.70
2017-12-15T11:26:04.281Z,15.13
2017-12-15T11:28:30.846Z,15.43
2017-12-15T11:30:57.526Z,15.27
2017-12-15T11:33:24.692Z,13.77
2017-12-15T11:35:51.183Z,16.07
2017-12-15T11:38:17.893Z,13.80
2017-12-15T11:40:44.772Z,16.10
2017-12-15T11:43:11.216Z,15.90
2017-12-15T11:45:37.896Z,15.23
2017-12-15T11:48:04.622Z,15.07
2017-12-15T11:50:31.118Z,15.83
2017-12-15T11:52:57.937Z,13.00
2017-12-15T11:55:24.447Z,13.67
2017-12-15T11:57:50.927Z,12.13
2017-12-15T12:00:17.466Z,12.30
2017-12-15T12:02:44.654Z,13.07
2017-12-15T12:05:11.216Z,12.83
2017-12-15T12:07:37.814Z,12.17
2017-12-15T12:10:04.901Z,13.10
2017-12-15T12:12:31.321Z,12.97
2017-12-15T12:14:57.851Z,13.03
2017-12-15T12:17:24.471Z,13.13
2017-12-15T12:19:51.686Z,12.67
2017-12-15T12:22:18.599Z,13.00
2017-12-15T12:24:45.141Z,11.80
2017-12-15T12:27:11.628Z,11.73
2017-12-15T12:29:38.573Z,12.67
2017-12-15T12:32:05.078Z,13.33
2017-12-15T12:34:31.470Z,11.90
2017-12-15T12:36:57.984Z,11.70
2017-12-15T12:39:24.402Z,13.50
2017-12-15T12:41:50.770Z,11.40
2017-12-15T12:44:17.217Z,13.33
2017-12-15T12:46:43.676Z,14.17
2017-12-15T12:49:10.060Z,12.13
2017-12-15T12:51:36.503Z,11.97
2017-12-15T12:54:02.840Z,14.43
2017-12-15T12:56:29.224Z,14.77
2017-12-15T12:58:55.812Z,13.27
2017-12-15T13:01:22.290Z,15.77
2017-12-15T13:03:48.809Z,14.47
2017-12-15T13:06:16.878Z,14.37
2017-12-15T13:08:43.366Z,15.70
2017-12-15T13:11:10.010Z,15.37
2017-12-15T13:13:36.940Z,14.60
2017-12-15T13:16:04.094Z,14.77
2017-12-15T13:18:31.291Z,14.47
2017-12-15T13:20:58.129Z,14.60
2017-12-15T13:23:25.625Z,13.83
2017-12-15T13:25:53.398Z,14.40
2017-12-15T13:28:21.870Z,12.23
2017-12-15T13:30:48.247Z,14.33
2017-12-15T13:33:14.700Z,13.70
2017-12-15T13:35:41.740Z,16.57
2017-12-15T13:38:08.219Z,13.50
2017-12-15T13:40:34.638Z,15.10
2017-12-15T13:43:01.947Z,15.13
2017-12-15T13:45:28.817Z,17.77
2017-12-15T13:47:55.251Z,15.90
2017-12-15T13:50:21.862Z,15.13
2017-12-15T13:52:49.356Z,15.10
2017-12-15T13:55:16.620Z,16.80
2017-12-15T13:57:43.161Z,16.07
2017-12-15T14:00:10.512Z,16.07
2017-12-15T14:02:38.452Z,17.13
2017-12-15T14:05:05.289Z,17.20
2017-12-15T14:07:31.952Z,17.37
2017-12-15T14:09:59.125Z,15.53
2017-12-15T14:12:25.546Z,16.87
2017-12-15T14:14:51.948Z,16.03
2017-12-15T14:17:18.446Z,16.17
2017-12-15T14:19:44.922Z,17.03
2017-12-15T14:22:12.096Z,17.10
2017-12-15T14:24:38.769Z,16.00
2017-12-15T14:27:05.579Z,18.23
2017-12-15T14:29:32.324Z,18.00
2017-12-15T14:31:58.868Z,15.77
2017-12-15T14:34:25.306Z,18.57
2017-12-15T14:36:52.422Z,17.97
2017-12-15T14:39:18.973Z,19.50
2017-12-15T14:41:46.560Z,17.83
2017-12-15T14:44:14.752Z,15.57
2017-12-15T14:46:41.590Z,17.40
2017-12-15T14:49:08.220Z,17.30
2017-12-15T14:51:34.802Z,16.97
2017-12-15T14:54:01.319Z,19.80
2017-12-15T14:56:30.171Z,15.77
2017-12-15T14:58:56.683Z,18.13
2017-12-15T15:01:25.017Z,20.10
2017-12-15T15:03:51.401Z,16.87
2017-12-15T15:06:18.569Z,17.33
2017-12-15T15:08:45.577Z,15.53
2017-12-15T15:11:12.108Z,17.33
2017-12-15T15:13:38.564Z,19.17
2017-12-15T15:16:05.870Z,14.27
2017-12-15T15:18:33.599Z,19.77
2017-12-15T15:21:00.708Z,17.73
2017-12-15T15:23:28.650Z,21.03
2017-12-15T15:25:55.706Z,16.53
2017-12-15T15:28:22.354Z,18.13
2017-12-15T15:30:48.874Z,16.70
2017-12-15T15:33:15.609Z,18.37
2017-12-15T15:35:42.239Z,18.30
2017-12-15T15:38:09.022Z,17.87
2017-12-15T15:40:36.767Z,17.93
2017-12-15T15:43:04.919Z,18.67
2017-12-15T15:45:31.536Z,19.63
2017-12-15T15:47:59.311Z,16.53
2017-12-15T15:50:25.777Z,15.90
2017-12-15T15:52:52.217Z,16.87
2017-12-15T15:55:18.703Z,18.07
2017-12-15T15:57:45.150Z,19.80
2017-12-15T16:00:11.774Z,20.10
2017-12-15T16:02:38.365Z,21.20
2017-12-15T16:05:04.950Z,20.00
2017-12-15T16:07:33.174Z,21.47
2017-12-15T16:10:00.436Z,21.00
2017-12-15T16:12:27.105Z,24.40
2017-12-15T16:14:53.935Z,23.30
2017-12-15T16:17:20.461Z,21.30
2017-12-15T16:19:46.918Z,22.80
2017-12-15T16:22:13.332Z,23.40
2017-12-15T16:24:40.326Z,23.33
2017-12-15T16:27:07.536Z,20.50
2017-12-15T16:29:34.249Z,22.33
2017-12-15T16:32:00.888Z,21.47
2017-12-15T16:34:27.686Z,23.00
2017-12-15T16:36:56.372Z,21.40
2017-12-15T16:39:22.981Z,20.07
2017-12-15T16:41:49.453Z,19.97
2017-12-15T16:44:16.294Z,21.00
2017-12-15T16:46:42.851Z,21.67
2017-12-15T16:49:09.312Z,22.50
2017-12-15T16:51:35.935Z,23.40
2017-12-15T16:54:03.643Z,20.70
2017-12-15T16:56:30.309Z,21.90
2017-12-15T16:58:57.076Z,24.37
2017-12-15T17:01:28.049Z,21.00
2017-12-15T17:03:55.752Z,20.40
2017-12-15T17:06:23.620Z,24.20
2017-12-15T17:08:51.255Z,20.80
2017-12-15T17:11:18.516Z,21.10
2017-12-15T17:13:46.115Z,22.77
2017-12-15T17:16:13.765Z,18.07
2017-12-15T17:18:40.429Z,24.27
2017-12-15T17:21:07.817Z,21.63
2017-12-15T17:23:34.501Z,22.90
2017-12-15T17:26:00.915Z,20.93
2017-12-15T17:28:27.321Z,20.57
2017-12-15T17:30:54.033Z,20.43
2017-12-15T17:33:20.748Z,23.47
2017-12-15T17:35:47.269Z,22.47
2017-12-15T17:38:13.822Z,23.83
2017-12-15T17:40:40.786Z,24.80
2017-12-15T17:43:11.278Z,22.37
2017-12-15T17:45:37.908Z,21.60
2017-12-15T17:48:04.533Z,23.33
2017-12-15T17:50:31.129Z,21.27
2017-12-15T17:52:57.912Z,22.43
2017-12-15T17:55:25.045Z,21.93
2017-12-15T17:57:52.345Z,21.17
2017-12-15T18:00:20.911Z,20.77
2017-12-15T18:02:48.025Z,19.50
2017-12-15T18:05:15.082Z,21.27
2017-12-15T18:07:41.683Z,19.77
2017-12-15T18:10:08.383Z,22.43
2017-12-15T18:12:35.862Z,20.37
2017-12-15T18:15:02.660Z,21.57
2017-12-15T18:17:29.458Z,22.97
2017-12-15T18:19:56.253Z,23.03
2017-12-15T18:22:22.969Z,16.97
2017-12-15T18:24:50.402Z,21.43
2017-12-15T18:27:16.937Z,22.20
2017-12-15T18:29:43.648Z,21.00
2017-12-15T18:32:11.025Z,23.27
2017-12-15T18:34:37.633Z,19.17
2017-12-15T18:37:04.170Z,20.10
2017-12-15T18:39:30.583Z,21.20
2017-12-15T18:41:57.309Z,20.40
2017-12-15T18:44:23.808Z,23.13
2017-12-15T18:46:50.641Z,20.97
2017-12-15T18:49:17.556Z,24.13
2017-12-15T18:51:45.280Z,21.30
2017-12-15T18:54:12.576Z,19.80
2017-12-15T18:56:39.393Z,19.10
2017-12-15T18:59:06.840Z,20.67
2017-12-15T19:01:33.379Z,22.73
2017-12-15T19:04:00.203Z,21.73
2017-12-15T19:06:27.309Z,23.30
2017-12-15T19:08:54.026Z,21.00
2017-12-15T19:11:20.867Z,21.20
2017-12-15T19:13:47.640Z,18.47
2017-12-15T19:16:15.169Z,16.37
2017-12-15T19:18:44.758Z,19.90
2017-12-15T19:21:11.737Z,17.43
2017-12-15T19:23:38.451Z,22.53
2017-12-15T19:26:05.233Z,21.23
2017-12-15T19:28:32.705Z,19.13
2017-12-15T19:30:59.592Z,19.10
2017-12-15T19:33:27.272Z,22.37
2017-12-15T19:35:55.682Z,22.23
2017-12-15T19:38:23.130Z,22.20
2017-12-15T19:40:50.188Z,22.10
2017-12-15T19:43:16.933Z,24.70
2017-12-15T19:45:43.761Z,20.97
2017-12-15T19:48:10.399Z,19.40
2017-12-15T19:50:38.061Z,25.60
2017-12-15T19:53:04.726Z,21.27
2017-12-15T19:55:31.778Z,22.00
2017-12-15T19:57:58.375Z,21.33
2017-12-15T20:00:24.883Z,22.90
2017-12-15T20:02:51.394Z,20.23
2017-12-15T20:05:18.664Z,19.80
2017-12-15T20:07:45.229Z,20.60
2017-12-15T20:10:12.534Z,21.00
2017-12-15T20:12:39.902Z,20.33
2017-12-15T20:15:06.860Z,18.30
2017-12-15T20:17:33.861Z,18.43
2017-12-15T20:20:01.081Z,21.50
2017-12-15T20:22:29.844Z,22.73
2017-12-15T20:24:56.644Z,20.57
2017-12-15T20:27:23.146Z,17.30
2017-12-15T20:29:53.667Z,18.80
2017-12-15T20:32:20.367Z,19.77
2017-12-15T20:34:46.895Z,19.93
2017-12-15T20:37:13.999Z,19.33
2017-12-15T20:39:40.513Z,17.63
2017-12-15T20:42:08.790Z,18.17
2017-12-15T20:44:36.334Z,21.47
2017-12-15T20:47:03.660Z,17.13
2017-12-15T20:49:30.441Z,21.90
2017-12-15T20:52:01.295Z,19.83
2017-12-15T20:54:28.454Z,18.90
2017-12-15T20:56:55.611Z,19.90
2017-12-15T20:59:22.918Z,17.37
2017-12-15T21:01:50.313Z,18.30
2017-12-15T21:04:17.680Z,19.00
2017-12-15T21:06:44.095Z,20.77
2017-12-15T21:09:10.543Z,19.97
2017-12-15T21:11:37.087Z,17.87
2017-12-15T21:14:04.348Z,17.80
2017-12-15T21:16:31.333Z,15.43
2017-12-15T21:18:57.812Z,18.50
2017-12-15T21:21:24.314Z,17.63
2017-12-15T21:23:50.785Z,20.50
2017-12-15T21:26:17.472Z,16.50
2017-12-15T21:28:43.983Z,15.33
2017-12-15T21:31:10.467Z,19.13
2017-12-15T21:33:37.109Z,18.93
2017-12-15T21:36:03.688Z,18.83
2017-12-15T21:38:30.203Z,16.17
2017-12-15T21:40:56.679Z,20.20
2017-12-15T21:43:23.894Z,19.77
2017-12-15T21:45:50.395Z,17.13
2017-12-15T21:48:18.842Z,20.37
2017-12-15T21:50:45.961Z,19.23
2017-12-15T21:53:12.430Z,19.20
2017-12-15T21:55:39.640Z,19.67
2017-12-15T21:58:06.019Z,17.60
2017-12-15T22:00:32.514Z,17.80
2017-12-15T22:02:59.919Z,20.90
2017-12-15T22:05:27.083Z,16.70
2017-12-15T22:07:53.546Z,18.07
2017-12-15T22:10:20.183Z,18.57
2017-12-15T22:12:46.720Z,18.33
2017-12-15T22:15:14.362Z,20.23
2017-12-15T22:17:41.221Z,18.67
2017-12-15T22:20:08.736Z,19.00
2017-12-15T22:22:35.241Z,20.00
2017-12-15T22:25:01.747Z,20.70
2017-12-15T22:27:28.973Z,23.20
2017-12-15T22:29:55.543Z,17.90
2017-12-15T22:32:22.118Z,23.57
2017-12-15T22:34:48.601Z,23.80
2017-12-15T22:37:15.036Z,22.60
2017-12-15T22:39:41.545Z,21.63
2017-12-15T22:42:08.045Z,22.13
2017-12-15T22:44:35.466Z,21.07
2017-12-15T22:47:03.260Z,16.63
2017-12-15T22:49:30.919Z,15.83
2017-12-15T22:51:57.631Z,19.17
2017-12-15T22:54:24.061Z,17.23
2017-12-15T22:56:50.481Z,19.60
2017-12-15T22:59:16.882Z,12.80
2017-12-15T23:01:43.399Z,19.47
2017-12-15T23:04:10.857Z,18.30
2017-12-15T23:06:37.581Z,19.50
2017-12-15T23:09:06.091Z,20.80
2017-12-15T23:11:33.303Z,23.13
2017-12-15T23:14:02.005Z,18.07
2017-12-15T23:16:29.299Z,17.90
2017-12-15T23:18:55.973Z,21.77
2017-12-15T23:21:22.419Z,21.33
2017-12-15T23:23:48.886Z,18.30
2017-12-15T23:26:15.282Z,21.40
2017-12-15T23:28:42.588Z,18.50
2017-12-15T23:31:09.140Z,19.03
2017-12-15T23:33:36.014Z,18.80
2017-12-15T23:36:02.545Z,22.47
2017-12-15T23:38:28.980Z,17.37
2017-12-15T23:40:56.688Z,19.93
2017-12-15T23:43:25.946Z,18.47
2017-12-15T23:45:53.444Z,20.23
2017-12-15T23:48:20.498Z,19.13
2017-12-15T23:50:47.324Z,19.17
2017-12-15T23:53:13.940Z,20.40
2017-12-15T23:55:52.573Z,19.50
2017-12-15T23:58:20.631Z,19.87
